createdAt,value
2022-09-12T00:00:23.129Z,13.72
2022-09-12T00:02:54.029Z,13.67
2022-09-12T00:05:21.110Z,13.66
2022-09-12T00:07:47.719Z,13.75
2022-09-12T00:10:14.703Z,13.88
2022-09-12T00:12:41.255Z,13.64
2022-09-12T00:15:08.802Z,13.23
2022-09-12T00:17:36.192Z,13.27
2022-09-12T00:20:04.422Z,13.57
2022-09-12T00:22:30.969Z,13.72
2022-09-12T00:24:59.278Z,13.68
2022-09-12T00:27:27.772Z,13.59
2022-09-12T00:29:55.999Z,13.25
2022-09-12T00:32:25.015Z,13.15
2022-09-12T00:34:52.152Z,13.15
2022-09-12T00:37:19.340Z,13.04
2022-09-12T00:39:48.389Z,13.24
2022-09-12T00:42:15.056Z,13.37
2022-09-12T00:44:45.290Z,13.30
2022-09-12T00:47:19.652Z,13.14
2022-09-12T00:49:57.537Z,13.27
2022-09-12T00:52:37.081Z,13.25
2022-09-12T00:55:11.318Z,13.08
2022-09-12T00:57:44.113Z,13.29
2022-09-12T01:00:18.841Z,13.27
2022-09-12T01:02:57.681Z,13.10
2022-09-12T01:05:24.810Z,13.12
2022-09-12T01:07:51.990Z,13.26
2022-09-12T01:10:19.089Z,12.98
2022-09-12T01:12:45.867Z,12.86
2022-09-12T01:15:13.035Z,13.04
2022-09-12T01:18:13.714Z,13.16
2022-09-12T01:20:55.462Z,12.99
2022-09-12T01:23:24.854Z,12.78
2022-09-12T01:26:15.814Z,12.74
2022-09-12T01:29:15.497Z,12.91
2022-09-12T01:31:52.899Z,12.71
2022-09-12T01:34:28.092Z,12.93
2022-09-12T01:37:17.639Z,12.81
2022-09-12T01:39:51.586Z,12.99
2022-09-12T01:42:27.192Z,12.93
2022-09-12T01:44:59.161Z,12.60
2022-09-12T01:47:31.890Z,12.67
2022-09-12T01:50:25.400Z,12.65
2022-09-12T01:53:18.067Z,12.61
2022-09-12T01:55:50.206Z,12.70
2022-09-12T01:58:26.937Z,12.64
2022-09-12T02:01:07.885Z,12.49
2022-09-12T02:03:52.798Z,12.52
2022-09-12T02:06:23.754Z,12.37
2022-09-12T02:08:55.223Z,12.69
2022-09-12T02:11:21.768Z,12.55
2022-09-12T02:13:55.267Z,12.53
2022-09-12T02:16:35.519Z,12.55
2022-09-12T02:19:11.550Z,12.39
2022-09-12T02:21:40.041Z,12.33
2022-09-12T02:24:08.959Z,12.31
2022-09-12T02:26:41.531Z,12.26
2022-09-12T02:29:08.186Z,12.51
2022-09-12T02:31:45.154Z,12.60
2022-09-12T02:34:34.929Z,12.59
2022-09-12T02:37:13.216Z,12.38
2022-09-12T02:39:44.523Z,12.38
2022-09-12T02:42:11.929Z,12.52
2022-09-12T02:44:38.453Z,12.54
2022-09-12T02:47:06.607Z,12.47
2022-09-12T02:49:33.146Z,12.45
2022-09-12T02:52:01.051Z,12.47
2022-09-12T02:54:28.222Z,12.34
2022-09-12T02:56:54.865Z,12.16
2022-09-12T02:59:22.468Z,12.16
2022-09-12T03:02:16.757Z,12.31
2022-09-12T03:04:49.360Z,12.29
2022-09-12T03:07:37.857Z,12.18
2022-09-12T03:10:16.514Z,12.15
2022-09-12T03:12:52.168Z,12.26
2022-09-12T03:15:51.089Z,12.22
2022-09-12T03:18:26.778Z,12.13
2022-09-12T03:21:18.660Z,12.17
2022-09-12T03:24:05.353Z,12.06
2022-09-12T03:26:37.787Z,12.00
2022-09-12T03:29:05.344Z,12.20
2022-09-12T03:31:31.983Z,12.17
2022-09-12T03:33:59.933Z,12.09
2022-09-12T03:36:28.622Z,12.01
2022-09-12T03:38:55.406Z,12.09
2022-09-12T03:41:22.536Z,12.05
2022-09-12T03:43:49.044Z,12.15
2022-09-12T03:46:15.507Z,11.93
2022-09-12T03:48:42.064Z,11.83
2022-09-12T03:51:09.938Z,11.81
2022-09-12T03:53:36.664Z,11.74
2022-09-12T03:56:10.537Z,11.77
2022-09-12T03:58:37.512Z,11.69
2022-09-12T04:01:12.450Z,11.65
2022-09-12T04:03:45.995Z,11.92
2022-09-12T04:06:14.838Z,11.71
2022-09-12T04:08:42.726Z,11.63
2022-09-12T04:11:12.253Z,11.83
2022-09-12T04:13:40.155Z,11.77
2022-09-12T04:16:07.494Z,11.85
2022-09-12T04:18:35.161Z,11.68
2022-09-12T04:21:09.977Z,11.77
2022-09-12T04:23:36.601Z,11.83
2022-09-12T04:26:06.513Z,11.59
2022-09-12T04:28:34.566Z,11.37
2022-09-12T04:31:07.642Z,11.65
2022-09-12T04:33:35.257Z,11.70
2022-09-12T04:36:06.225Z,11.66
2022-09-12T04:38:33.414Z,11.51
2022-09-12T04:41:00.072Z,11.73
2022-09-12T04:43:26.791Z,11.60
2022-09-12T04:45:53.327Z,11.51
2022-09-12T04:48:19.811Z,11.37
2022-09-12T04:50:46.273Z,11.63
2022-09-12T04:53:12.719Z,11.57
2022-09-12T04:55:39.184Z,11.76
2022-09-12T04:58:05.631Z,11.79
2022-09-12T05:00:32.096Z,11.63
2022-09-12T05:02:58.558Z,11.77
2022-09-12T05:05:25.069Z,11.71
2022-09-12T05:07:51.599Z,11.88
2022-09-12T05:10:18.257Z,11.87
2022-09-12T05:12:44.739Z,12.03
2022-09-12T05:15:11.576Z,11.93
2022-09-12T05:17:38.023Z,11.91
2022-09-12T05:20:04.898Z,11.94
2022-09-12T05:22:31.330Z,12.16
2022-09-12T05:24:57.789Z,12.13
2022-09-12T05:27:24.237Z,12.21
2022-09-12T05:29:51.328Z,12.11
2022-09-12T05:32:17.785Z,12.33
2022-09-12T05:34:44.331Z,12.34
2022-09-12T05:37:10.777Z,12.42
2022-09-12T05:39:37.314Z,12.30
2022-09-12T05:42:04.085Z,12.49
2022-09-12T05:44:30.992Z,12.14
2022-09-12T05:46:57.583Z,12.54
2022-09-12T05:49:24.496Z,12.60
2022-09-12T05:51:51.649Z,12.79
2022-09-12T05:54:20.463Z,12.90
2022-09-12T05:56:47.419Z,12.97
2022-09-12T05:59:17.106Z,12.87
2022-09-12T06:01:44.566Z,13.04
2022-09-12T06:04:12.125Z,12.90
2022-09-12T06:06:41.853Z,12.99
2022-09-12T06:09:08.602Z,13.19
2022-09-12T06:11:37.309Z,13.06
2022-09-12T06:14:04.557Z,13.28
2022-09-12T06:16:33.219Z,13.47
2022-09-12T06:19:06.993Z,13.58
2022-09-12T06:21:35.383Z,13.57
2022-09-12T06:24:02.278Z,13.87
2022-09-12T06:26:29.468Z,13.88
2022-09-12T06:28:57.366Z,13.95
2022-09-12T06:31:28.804Z,14.06
2022-09-12T06:33:56.345Z,14.22
2022-09-12T06:36:24.926Z,14.36
2022-09-12T06:39:02.950Z,14.55
2022-09-12T06:41:31.115Z,14.75
2022-09-12T06:43:58.314Z,14.91
2022-09-12T06:46:25.555Z,14.99
2022-09-12T06:48:52.151Z,14.94
2022-09-12T06:51:20.145Z,15.24
2022-09-12T06:53:47.809Z,15.23
2022-09-12T06:56:19.571Z,15.43
2022-09-12T06:58:47.131Z,15.48
2022-09-12T07:01:15.662Z,15.77
2022-09-12T07:03:42.947Z,15.97
2022-09-12T07:06:11.280Z,16.11
2022-09-12T07:08:39.142Z,16.14
2022-09-12T07:11:35.483Z,16.26
2022-09-12T07:14:04.245Z,16.49
2022-09-12T07:16:31.328Z,16.75
2022-09-12T07:19:02.356Z,16.93
2022-09-12T07:21:29.750Z,17.06
2022-09-12T07:24:00.061Z,17.25
2022-09-12T07:26:28.266Z,17.24
2022-09-12T07:29:07.809Z,17.29
2022-09-12T07:31:39.638Z,17.55
2022-09-12T07:34:06.895Z,18.00
2022-09-12T07:36:33.642Z,17.53
2022-09-12T07:39:00.221Z,17.93
2022-09-12T07:41:28.801Z,17.79
2022-09-12T07:43:57.767Z,17.81
2022-09-12T07:46:25.333Z,18.50
2022-09-12T07:48:52.951Z,18.93
2022-09-12T07:51:19.826Z,19.03
2022-09-12T07:53:47.244Z,19.19
2022-09-12T07:56:14.019Z,19.45
2022-09-12T07:58:41.918Z,19.70
2022-09-12T08:01:09.746Z,19.87
2022-09-12T08:03:36.886Z,19.37
2022-09-12T08:06:08.546Z,19.78
2022-09-12T08:08:35.424Z,19.82
2022-09-12T08:11:05.902Z,19.90
2022-09-12T08:13:33.914Z,20.41
2022-09-12T08:16:04.955Z,20.63
2022-09-12T08:18:32.725Z,20.68
2022-09-12T08:21:04.067Z,20.54
2022-09-12T08:23:30.590Z,20.44
2022-09-12T08:25:58.586Z,20.30
2022-09-12T08:28:25.919Z,20.50
2022-09-12T08:31:00.524Z,20.94
2022-09-12T08:33:32.930Z,20.36
2022-09-12T08:36:15.279Z,20.93
2022-09-12T08:38:44.112Z,20.79
2022-09-12T08:41:30.916Z,20.77
2022-09-12T08:44:22.165Z,21.08
2022-09-12T08:47:13.432Z,20.82
2022-09-12T08:49:51.630Z,21.38
2022-09-12T08:52:22.478Z,21.43
2022-09-12T08:54:50.737Z,21.21
2022-09-12T08:57:18.521Z,21.26
2022-09-12T08:59:46.368Z,22.06
2022-09-12T09:02:25.085Z,22.32
2022-09-12T09:05:14.405Z,22.36
2022-09-12T09:08:08.912Z,22.40
2022-09-12T09:10:58.607Z,22.19
2022-09-12T09:14:22.241Z,22.86
2022-09-12T09:16:50.666Z,22.95
2022-09-12T09:19:28.034Z,23.44
2022-09-12T09:22:01.708Z,23.67
2022-09-12T09:24:43.628Z,23.01
2022-09-12T09:27:47.461Z,23.06
2022-09-12T09:30:19.764Z,23.03
2022-09-12T09:32:51.017Z,23.14
2022-09-12T09:35:24.529Z,23.37
2022-09-12T09:38:22.504Z,23.05
2022-09-12T09:41:18.742Z,22.83
2022-09-12T09:43:45.485Z,22.47
2022-09-12T09:46:12.335Z,21.93
2022-09-12T09:48:42.478Z,22.39
2022-09-12T09:51:09.502Z,22.56
2022-09-12T09:53:52.146Z,21.94
2022-09-12T09:56:35.849Z,21.93
2022-09-12T09:59:16.789Z,22.84
2022-09-12T10:01:50.299Z,22.61
2022-09-12T10:04:19.906Z,22.74
2022-09-12T10:06:46.622Z,23.02
2022-09-12T10:09:27.337Z,22.54
2022-09-12T10:11:55.567Z,22.39
2022-09-12T10:14:38.626Z,23.33
2022-09-12T10:17:33.923Z,23.74
2022-09-12T10:20:17.859Z,23.11
2022-09-12T10:22:47.794Z,23.35
2022-09-12T10:25:16.888Z,23.57
2022-09-12T10:27:43.447Z,22.63
2022-09-12T10:30:20.887Z,23.00
2022-09-12T10:32:54.128Z,22.66
2022-09-12T10:35:25.559Z,23.23
2022-09-12T10:37:58.520Z,23.00
2022-09-12T10:40:27.869Z,22.81
2022-09-12T10:42:57.229Z,23.20
2022-09-12T10:45:29.788Z,23.00
2022-09-12T10:48:02.074Z,23.49
2022-09-12T10:50:40.515Z,23.93
2022-09-12T10:53:28.959Z,23.57
2022-09-12T10:56:04.115Z,23.01
2022-09-12T10:58:58.506Z,22.29
2022-09-12T11:01:41.545Z,23.35
2022-09-12T11:04:08.119Z,23.64
2022-09-12T11:06:47.353Z,23.35
2022-09-12T11:09:40.398Z,23.56
2022-09-12T11:12:38.128Z,23.75
2022-09-12T11:15:35.111Z,24.37
2022-09-12T11:18:34.898Z,24.18
2022-09-12T11:21:13.519Z,23.93
2022-09-12T11:23:59.993Z,23.75
2022-09-12T11:26:39.298Z,23.51
2022-09-12T11:29:15.066Z,23.33
2022-09-12T11:31:47.504Z,23.29
2022-09-12T11:34:20.558Z,23.82
2022-09-12T11:36:57.060Z,23.53
2022-09-12T11:39:36.384Z,23.45
2022-09-12T11:42:05.494Z,23.27
2022-09-12T11:44:37.699Z,23.49
2022-09-12T11:47:10.450Z,23.50
2022-09-12T11:49:47.208Z,23.62
2022-09-12T11:52:16.640Z,23.64
2022-09-12T11:54:53.726Z,23.95
2022-09-12T11:57:20.616Z,24.32
2022-09-12T11:59:57.080Z,24.27
2022-09-12T12:02:28.631Z,24.19
2022-09-12T12:05:05.881Z,24.46
2022-09-12T12:07:43.413Z,24.46
2022-09-12T12:10:23.100Z,24.77
2022-09-12T12:12:50.304Z,24.81
2022-09-12T12:15:17.534Z,24.72
2022-09-12T12:17:44.095Z,24.51
2022-09-12T12:20:17.862Z,24.16
2022-09-12T12:22:54.137Z,23.81
2022-09-12T12:25:29.484Z,24.10
2022-09-12T12:27:59.240Z,24.97
2022-09-12T12:30:31.863Z,25.45
2022-09-12T12:33:27.164Z,25.12
2022-09-12T12:35:59.678Z,24.95
2022-09-12T12:38:31.265Z,25.45
2022-09-12T12:41:16.515Z,24.94
2022-09-12T12:43:48.152Z,23.96
2022-09-12T12:46:18.916Z,23.91
2022-09-12T12:49:06.093Z,23.93
2022-09-12T12:51:43.807Z,24.04
2022-09-12T12:54:50.247Z,24.86
2022-09-12T12:57:16.933Z,25.46
2022-09-12T12:59:58.486Z,25.98
2022-09-12T13:02:40.208Z,25.75
2022-09-12T13:05:17.583Z,24.94
2022-09-12T13:07:44.515Z,24.87
2022-09-12T13:10:25.439Z,24.56
2022-09-12T13:12:52.593Z,24.78
2022-09-12T13:15:47.083Z,24.57
2022-09-12T13:18:18.194Z,24.09
2022-09-12T13:20:49.815Z,23.97
2022-09-12T13:23:31.232Z,24.46
2022-09-12T13:25:59.952Z,24.36
2022-09-12T13:28:28.642Z,24.09
2022-09-12T13:31:17.295Z,24.50
2022-09-12T13:33:48.134Z,24.44
2022-09-12T13:36:30.398Z,24.37
2022-09-12T13:38:56.807Z,24.89
2022-09-12T13:41:57.906Z,25.08
2022-09-12T13:44:24.613Z,25.14
2022-09-12T13:46:51.950Z,24.98
2022-09-12T13:49:30.305Z,24.86
2022-09-12T13:52:08.417Z,24.64
2022-09-12T13:54:41.020Z,25.69
2022-09-12T13:57:21.134Z,25.65
2022-09-12T13:59:50.136Z,25.44
2022-09-12T14:02:22.047Z,25.20
2022-09-12T14:05:09.373Z,24.77
2022-09-12T14:07:53.643Z,24.93
2022-09-12T14:10:26.580Z,24.98
2022-09-12T14:12:56.619Z,24.76
2022-09-12T14:15:31.026Z,24.66
2022-09-12T14:18:01.501Z,24.77
2022-09-12T14:20:32.786Z,24.57
2022-09-12T14:23:08.006Z,24.07
2022-09-12T14:25:41.905Z,24.10
2022-09-12T14:28:13.701Z,24.59
2022-09-12T14:30:41.282Z,23.94
2022-09-12T14:33:10.795Z,24.43
2022-09-12T14:35:43.292Z,23.72
2022-09-12T14:38:16.511Z,23.68
2022-09-12T14:40:48.673Z,23.90
2022-09-12T14:43:21.779Z,23.99
2022-09-12T14:45:53.574Z,23.96
2022-09-12T14:48:20.353Z,23.93
2022-09-12T14:50:52.070Z,23.59
2022-09-12T14:53:18.581Z,23.99
2022-09-12T14:55:57.747Z,23.80
2022-09-12T14:58:26.621Z,23.88
2022-09-12T15:01:20.771Z,24.07
2022-09-12T15:03:49.985Z,23.98
2022-09-12T15:06:36.626Z,23.59
2022-09-12T15:09:06.306Z,23.86
2022-09-12T15:11:33.996Z,23.70
2022-09-12T15:14:13.210Z,23.66
2022-09-12T15:16:39.909Z,23.80
2022-09-12T15:19:06.370Z,23.64
2022-09-12T15:21:33.179Z,23.55
2022-09-12T15:24:00.107Z,23.76
2022-09-12T15:26:30.621Z,23.88
2022-09-12T15:28:57.859Z,23.91
2022-09-12T15:31:24.354Z,24.04
2022-09-12T15:33:51.077Z,23.78
2022-09-12T15:36:20.192Z,23.64
2022-09-12T15:38:47.182Z,24.25
2022-09-12T15:41:20.398Z,23.75
2022-09-12T15:43:47.301Z,23.55
2022-09-12T15:46:15.266Z,23.77
2022-09-12T15:48:41.836Z,23.65
2022-09-12T15:51:16.912Z,23.65
2022-09-12T15:53:44.293Z,23.75
2022-09-12T15:56:11.208Z,23.48
2022-09-12T15:58:49.792Z,23.48
2022-09-12T16:01:24.365Z,23.33
2022-09-12T16:03:51.116Z,23.50
2022-09-12T16:06:18.066Z,23.57
2022-09-12T16:08:44.681Z,23.70
2022-09-12T16:11:19.109Z,23.50
2022-09-12T16:13:45.726Z,23.65
2022-09-12T16:16:13.182Z,23.53
2022-09-12T16:18:40.690Z,23.47
2022-09-12T16:21:10.164Z,23.30
2022-09-12T16:23:42.995Z,23.45
2022-09-12T16:26:09.584Z,23.68
2022-09-12T16:28:36.402Z,23.51
2022-09-12T16:31:05.213Z,23.64
2022-09-12T16:33:32.391Z,23.42
2022-09-12T16:36:06.690Z,23.36
2022-09-12T16:38:34.635Z,23.40
2022-09-12T16:41:06.199Z,23.25
2022-09-12T16:43:34.621Z,23.22
2022-09-12T16:46:11.908Z,23.13
2022-09-12T16:48:42.739Z,23.09
2022-09-12T16:51:09.836Z,22.91
2022-09-12T16:53:37.456Z,22.99
2022-09-12T16:56:05.352Z,23.20
2022-09-12T16:58:35.619Z,23.02
2022-09-12T17:01:09.922Z,22.91
2022-09-12T17:03:36.664Z,22.77
2022-09-12T17:06:10.695Z,22.76
2022-09-12T17:08:38.966Z,22.64
2022-09-12T17:11:08.255Z,22.56
2022-09-12T17:13:53.308Z,22.49
2022-09-12T17:16:22.436Z,22.61
2022-09-12T17:18:49.448Z,22.61
2022-09-12T17:21:16.229Z,22.42
2022-09-12T17:23:43.118Z,22.54
2022-09-12T17:26:10.702Z,22.48
2022-09-12T17:28:38.580Z,22.32
2022-09-12T17:31:12.829Z,22.24
2022-09-12T17:33:39.773Z,22.26
2022-09-12T17:36:12.390Z,22.20
2022-09-12T17:38:43.171Z,22.12
2022-09-12T17:41:11.392Z,22.28
2022-09-12T17:43:40.833Z,22.22
2022-09-12T17:46:07.858Z,22.17
2022-09-12T17:48:34.998Z,22.19
2022-09-12T17:51:13.407Z,22.24
2022-09-12T17:53:43.598Z,22.13
2022-09-12T17:56:10.973Z,22.24
2022-09-12T17:58:37.939Z,22.10
2022-09-12T18:01:25.742Z,21.97
2022-09-12T18:03:56.868Z,22.12
2022-09-12T18:06:24.269Z,21.88
2022-09-12T18:08:50.980Z,22.14
2022-09-12T18:11:17.671Z,21.91
2022-09-12T18:13:44.479Z,21.90
2022-09-12T18:16:12.679Z,22.06
2022-09-12T18:18:40.202Z,22.00
2022-09-12T18:21:08.561Z,21.89
2022-09-12T18:23:37.632Z,21.88
2022-09-12T18:26:34.935Z,21.57
2022-09-12T18:29:01.666Z,21.66
2022-09-12T18:31:29.638Z,21.43
2022-09-12T18:33:57.677Z,21.51
2022-09-12T18:36:24.170Z,21.52
2022-09-12T18:38:51.021Z,21.28
2022-09-12T18:41:22.443Z,21.30
2022-09-12T18:43:49.867Z,21.35
2022-09-12T18:46:18.413Z,21.23
2022-09-12T18:48:45.830Z,21.22
2022-09-12T18:51:17.975Z,21.42
2022-09-12T18:53:52.623Z,21.35
2022-09-12T18:56:19.446Z,21.39
2022-09-12T18:58:50.495Z,21.34
2022-09-12T19:01:20.413Z,21.32
2022-09-12T19:03:47.385Z,21.41
2022-09-12T19:06:17.821Z,21.17
2022-09-12T19:08:45.206Z,21.25
2022-09-12T19:11:11.986Z,21.00
2022-09-12T19:13:40.708Z,21.06
2022-09-12T19:16:09.384Z,21.22
2022-09-12T19:18:37.253Z,21.14
2022-09-12T19:21:04.621Z,21.08
2022-09-12T19:23:32.763Z,21.08
2022-09-12T19:26:01.086Z,21.13
2022-09-12T19:28:28.490Z,21.15
2022-09-12T19:30:55.272Z,21.08
2022-09-12T19:33:22.438Z,21.15
2022-09-12T19:35:49.700Z,20.89
2022-09-12T19:38:16.338Z,20.88
2022-09-12T19:40:42.938Z,20.66
2022-09-12T19:43:09.910Z,20.76
2022-09-12T19:45:36.969Z,20.66
2022-09-12T19:48:03.942Z,20.69
2022-09-12T19:50:33.618Z,20.75
2022-09-12T19:53:00.105Z,20.91
2022-09-12T19:55:26.678Z,20.96
2022-09-12T19:57:53.775Z,20.92
2022-09-12T20:00:20.285Z,20.81
2022-09-12T20:02:50.547Z,20.92
2022-09-12T20:05:17.481Z,20.86
2022-09-12T20:07:43.976Z,20.70
2022-09-12T20:10:10.463Z,20.68
2022-09-12T20:12:37.166Z,20.72
2022-09-12T20:15:04.756Z,20.53
2022-09-12T20:17:31.660Z,20.49
2022-09-12T20:19:58.178Z,20.50
2022-09-12T20:22:24.871Z,20.40
2022-09-12T20:24:51.428Z,20.21
2022-09-12T20:27:17.942Z,20.56
2022-09-12T20:29:44.398Z,20.39
2022-09-12T20:32:10.965Z,20.45
2022-09-12T20:34:37.436Z,20.37
2022-09-12T20:37:03.875Z,20.34
2022-09-12T20:39:30.416Z,20.51
2022-09-12T20:41:56.868Z,20.41
2022-09-12T20:44:23.375Z,20.39
2022-09-12T20:46:49.883Z,20.56
2022-09-12T20:49:16.448Z,20.51
2022-09-12T20:51:42.975Z,20.64
2022-09-12T20:54:10.479Z,20.53
2022-09-12T20:56:37.626Z,20.49
2022-09-12T20:59:05.130Z,20.55
2022-09-12T21:01:31.938Z,20.67
2022-09-12T21:04:00.157Z,20.78
2022-09-12T21:06:26.800Z,20.54
2022-09-12T21:08:56.039Z,20.71
2022-09-12T21:11:22.480Z,20.56
2022-09-12T21:13:49.191Z,20.41
2022-09-12T21:16:18.782Z,20.48
2022-09-12T21:18:46.368Z,20.51
2022-09-12T21:21:14.253Z,20.64
2022-09-12T21:23:41.336Z,20.54
2022-09-12T21:26:08.266Z,20.56
2022-09-12T21:28:35.182Z,20.60
2022-09-12T21:31:01.667Z,20.68
2022-09-12T21:33:28.408Z,20.51
2022-09-12T21:35:55.096Z,20.61
2022-09-12T21:38:21.598Z,20.60
2022-09-12T21:40:48.087Z,20.65
2022-09-12T21:43:15.049Z,20.60
2022-09-12T21:45:41.816Z,20.56
2022-09-12T21:48:08.432Z,20.66
2022-09-12T21:50:34.943Z,20.45
2022-09-12T21:53:01.398Z,20.48
2022-09-12T21:55:28.060Z,20.64
2022-09-12T21:57:55.231Z,20.36
2022-09-12T22:00:22.491Z,20.36
2022-09-12T22:02:49.349Z,20.52
2022-09-12T22:05:17.221Z,20.39
2022-09-12T22:07:43.968Z,20.72
2022-09-12T22:10:10.581Z,20.74
2022-09-12T22:12:37.058Z,20.69
2022-09-12T22:15:22.983Z,20.32
2022-09-12T22:17:50.400Z,20.40
2022-09-12T22:20:16.908Z,20.34
2022-09-12T22:23:02.155Z,20.59
2022-09-12T22:25:28.637Z,20.47
2022-09-12T22:27:55.258Z,20.42
2022-09-12T22:30:22.532Z,20.25
2022-09-12T22:32:50.547Z,20.23
2022-09-12T22:35:18.330Z,20.32
2022-09-12T22:37:44.884Z,20.24
2022-09-12T22:40:11.916Z,20.13
2022-09-12T22:42:38.991Z,20.23
2022-09-12T22:45:07.245Z,20.19
2022-09-12T22:47:34.118Z,20.03
2022-09-12T22:50:00.602Z,20.33
2022-09-12T22:52:27.058Z,20.38
2022-09-12T22:54:53.576Z,20.09
2022-09-12T22:57:20.029Z,20.26
2022-09-12T22:59:46.682Z,20.30
2022-09-12T23:02:13.154Z,20.12
2022-09-12T23:04:40.047Z,19.78
2022-09-12T23:07:06.667Z,19.91
2022-09-12T23:09:35.421Z,19.98
2022-09-12T23:12:02.509Z,19.68
2022-09-12T23:14:29.018Z,19.78
2022-09-12T23:16:55.670Z,19.76
2022-09-12T23:19:22.153Z,19.71
2022-09-12T23:21:48.584Z,19.63
2022-09-12T23:24:15.075Z,19.70
2022-09-12T23:26:41.502Z,19.57
2022-09-12T23:29:08.909Z,19.69
2022-09-12T23:31:35.772Z,19.86
2022-09-12T23:34:06.073Z,19.90
2022-09-12T23:36:33.682Z,20.08
2022-09-12T23:39:00.508Z,19.87
2022-09-12T23:41:27.050Z,20.01
2022-09-12T23:43:53.785Z,19.87
2022-09-12T23:46:21.105Z,19.76
2022-09-12T23:48:48.211Z,20.00
2022-09-12T23:51:15.226Z,19.67
2022-09-12T23:53:41.841Z,19.70
2022-09-12T23:56:08.462Z,19.92
2022-09-12T23:58:34.984Z,19.66
